sensor_id;sensor_type;location;lat;lon;timestamp;P1;durP1;ratioP1;P2;durP2;ratioP2
76059;SDS011;64759;52.220;5.170;2022-11-18T00:00:43;6.05;;;2.83;;
76059;SDS011;64759;52.220;5.170;2022-11-18T00:03:09;7.13;;;2.80;;
76059;SDS011;64759;52.220;5.170;2022-11-18T00:05:34;6.60;;;3.08;;
76059;SDS011;64759;52.220;5.170;2022-11-18T00:07:59;6.22;;;2.97;;
76059;SDS011;64759;52.220;5.170;2022-11-18T00:10:25;7.38;;;2.92;;
76059;SDS011;64759;52.220;5.170;2022-11-18T00:12:50;7.03;;;2.90;;
76059;SDS011;64759;52.220;5.170;2022-11-18T00:15:34;6.65;;;2.97;;
76059;SDS011;64759;52.220;5.170;2022-11-18T00:17:59;6.63;;;3.45;;
76059;SDS011;64759;52.220;5.170;2022-11-18T00:20:24;7.65;;;2.65;;
76059;SDS011;64759;52.220;5.170;2022-11-18T00:22:50;9.65;;;3.03;;
76059;SDS011;64759;52.220;5.170;2022-11-18T00:25:15;12.10;;;3.13;;
76059;SDS011;64759;52.220;5.170;2022-11-18T00:27:40;8.30;;;3.10;;
76059;SDS011;64759;52.220;5.170;2022-11-18T00:30:06;7.05;;;3.45;;
76059;SDS011;64759;52.220;5.170;2022-11-18T00:32:32;5.57;;;2.83;;
76059;SDS011;64759;52.220;5.170;2022-11-18T00:34:57;10.68;;;2.83;;
76059;SDS011;64759;52.220;5.170;2022-11-18T00:37:22;9.30;;;2.70;;
76059;SDS011;64759;52.220;5.170;2022-11-18T00:39:48;9.98;;;2.97;;
76059;SDS011;64759;52.220;5.170;2022-11-18T00:42:13;9.18;;;3.35;;
76059;SDS011;64759;52.220;5.170;2022-11-18T00:44:57;5.80;;;3.10;;
76059;SDS011;64759;52.220;5.170;2022-11-18T00:47:22;8.02;;;3.28;;
76059;SDS011;64759;52.220;5.170;2022-11-18T00:49:48;12.07;;;3.17;;
76059;SDS011;64759;52.220;5.170;2022-11-18T00:52:13;7.57;;;3.30;;
76059;SDS011;64759;52.220;5.170;2022-11-18T00:54:38;9.02;;;2.95;;
76059;SDS011;64759;52.220;5.170;2022-11-18T00:57:04;10.77;;;3.20;;
76059;SDS011;64759;52.220;5.170;2022-11-18T00:59:29;11.23;;;3.97;;
76059;SDS011;64759;52.220;5.170;2022-11-18T01:01:54;11.18;;;3.67;;
76059;SDS011;64759;52.220;5.170;2022-11-18T01:04:20;7.45;;;2.83;;
76059;SDS011;64759;52.220;5.170;2022-11-18T01:06:47;6.80;;;3.25;;
76059;SDS011;64759;52.220;5.170;2022-11-18T01:09:12;8.63;;;3.50;;
76059;SDS011;64759;52.220;5.170;2022-11-18T01:11:37;9.93;;;3.25;;
76059;SDS011;64759;52.220;5.170;2022-11-18T01:14:23;7.70;;;4.07;;
76059;SDS011;64759;52.220;5.170;2022-11-18T01:16:49;8.27;;;2.97;;
76059;SDS011;64759;52.220;5.170;2022-11-18T01:19:18;6.47;;;3.35;;
76059;SDS011;64759;52.220;5.170;2022-11-18T01:21:43;6.55;;;3.20;;
76059;SDS011;64759;52.220;5.170;2022-11-18T01:24:08;9.13;;;3.40;;
76059;SDS011;64759;52.220;5.170;2022-11-18T01:26:34;9.98;;;2.92;;
76059;SDS011;64759;52.220;5.170;2022-11-18T01:28:59;8.98;;;3.10;;
76059;SDS011;64759;52.220;5.170;2022-11-18T01:31:24;8.57;;;3.65;;
76059;SDS011;64759;52.220;5.170;2022-11-18T01:33:50;8.88;;;3.40;;
76059;SDS011;64759;52.220;5.170;2022-11-18T01:36:20;10.57;;;3.40;;
76059;SDS011;64759;52.220;5.170;2022-11-18T01:38:47;7.82;;;3.95;;
76059;SDS011;64759;52.220;5.170;2022-11-18T01:41:13;12.23;;;4.30;;
76059;SDS011;64759;52.220;5.170;2022-11-18T01:46:18;14.00;;;4.35;;
76059;SDS011;64759;52.220;5.170;2022-11-18T01:48:44;11.38;;;3.50;;
76059;SDS011;64759;52.220;5.170;2022-11-18T01:51:15;11.77;;;3.78;;
76059;SDS011;64759;52.220;5.170;2022-11-18T01:53:52;10.70;;;4.00;;
76059;SDS011;64759;52.220;5.170;2022-11-18T01:56:25;9.95;;;3.85;;
76059;SDS011;64759;52.220;5.170;2022-11-18T01:59:07;13.68;;;4.13;;
76059;SDS011;64759;52.220;5.170;2022-11-18T02:01:35;9.30;;;4.18;;
76059;SDS011;64759;52.220;5.170;2022-11-18T02:04:01;9.48;;;3.80;;
76059;SDS011;64759;52.220;5.170;2022-11-18T02:06:27;10.05;;;4.32;;
76059;SDS011;64759;52.220;5.170;2022-11-18T02:08:52;9.13;;;3.60;;
76059;SDS011;64759;52.220;5.170;2022-11-18T02:11:18;12.05;;;3.92;;
76059;SDS011;64759;52.220;5.170;2022-11-18T02:14:03;12.50;;;3.85;;
76059;SDS011;64759;52.220;5.170;2022-11-18T02:16:54;14.43;;;4.63;;
76059;SDS011;64759;52.220;5.170;2022-11-18T02:30:59;12.25;;;4.72;;
76059;SDS011;64759;52.220;5.170;2022-11-18T02:36:27;11.63;;;4.40;;
76059;SDS011;64759;52.220;5.170;2022-11-18T02:39:03;7.47;;;4.18;;
76059;SDS011;64759;52.220;5.170;2022-11-18T02:41:33;9.25;;;3.90;;
76059;SDS011;64759;52.220;5.170;2022-11-18T02:44:04;8.82;;;3.63;;
76059;SDS011;64759;52.220;5.170;2022-11-18T02:46:34;8.05;;;4.13;;
76059;SDS011;64759;52.220;5.170;2022-11-18T02:49:05;15.35;;;4.80;;
76059;SDS011;64759;52.220;5.170;2022-11-18T02:51:33;11.73;;;4.53;;
76059;SDS011;64759;52.220;5.170;2022-11-18T02:54:04;16.80;;;5.50;;
76059;SDS011;64759;52.220;5.170;2022-11-18T02:56:32;13.75;;;4.85;;
76059;SDS011;64759;52.220;5.170;2022-11-18T02:58:59;11.25;;;4.93;;
76059;SDS011;64759;52.220;5.170;2022-11-18T03:01:25;10.63;;;5.22;;
76059;SDS011;64759;52.220;5.170;2022-11-18T03:03:54;11.45;;;4.88;;
76059;SDS011;64759;52.220;5.170;2022-11-18T03:09:13;12.55;;;5.00;;
76059;SDS011;64759;52.220;5.170;2022-11-18T03:11:48;12.52;;;5.28;;
76059;SDS011;64759;52.220;5.170;2022-11-18T03:14:31;11.07;;;6.40;;
76059;SDS011;64759;52.220;5.170;2022-11-18T03:17:22;14.48;;;5.68;;
76059;SDS011;64759;52.220;5.170;2022-11-18T03:19:55;10.13;;;5.35;;
76059;SDS011;64759;52.220;5.170;2022-11-18T03:22:39;9.45;;;5.70;;
76059;SDS011;64759;52.220;5.170;2022-11-18T03:25:18;11.45;;;5.32;;
76059;SDS011;64759;52.220;5.170;2022-11-18T03:33:32;12.00;;;5.72;;
76059;SDS011;64759;52.220;5.170;2022-11-18T03:36:02;13.02;;;5.20;;
76059;SDS011;64759;52.220;5.170;2022-11-18T03:38:33;13.05;;;6.20;;
76059;SDS011;64759;52.220;5.170;2022-11-18T03:41:03;16.30;;;6.22;;
76059;SDS011;64759;52.220;5.170;2022-11-18T03:43:33;14.45;;;5.57;;
76059;SDS011;64759;52.220;5.170;2022-11-18T03:46:12;18.77;;;5.55;;
76059;SDS011;64759;52.220;5.170;2022-11-18T03:48:59;14.48;;;6.32;;
76059;SDS011;64759;52.220;5.170;2022-11-18T03:51:27;11.50;;;5.35;;
76059;SDS011;64759;52.220;5.170;2022-11-18T03:54:05;11.93;;;5.55;;
76059;SDS011;64759;52.220;5.170;2022-11-18T03:56:36;12.73;;;6.68;;
76059;SDS011;64759;52.220;5.170;2022-11-18T03:59:11;12.25;;;5.78;;
76059;SDS011;64759;52.220;5.170;2022-11-18T04:01:47;15.55;;;6.32;;
76059;SDS011;64759;52.220;5.170;2022-11-18T04:04:20;12.75;;;5.60;;
76059;SDS011;64759;52.220;5.170;2022-11-18T04:06:48;16.88;;;6.53;;
76059;SDS011;64759;52.220;5.170;2022-11-18T04:09:28;13.43;;;5.93;;
76059;SDS011;64759;52.220;5.170;2022-11-18T04:12:05;12.05;;;5.72;;
76059;SDS011;64759;52.220;5.170;2022-11-18T04:14:35;16.45;;;6.97;;
76059;SDS011;64759;52.220;5.170;2022-11-18T04:17:13;15.48;;;6.80;;
76059;SDS011;64759;52.220;5.170;2022-11-18T04:19:44;13.18;;;6.05;;
76059;SDS011;64759;52.220;5.170;2022-11-18T04:22:09;16.73;;;7.07;;
76059;SDS011;64759;52.220;5.170;2022-11-18T04:24:35;13.65;;;5.90;;
76059;SDS011;64759;52.220;5.170;2022-11-18T04:27:01;13.52;;;6.57;;
76059;SDS011;64759;52.220;5.170;2022-11-18T04:29:28;13.05;;;6.38;;
76059;SDS011;64759;52.220;5.170;2022-11-18T04:31:54;11.30;;;6.97;;
76059;SDS011;64759;52.220;5.170;2022-11-18T04:34:20;12.07;;;5.95;;
76059;SDS011;64759;52.220;5.170;2022-11-18T04:36:45;16.85;;;6.45;;
76059;SDS011;64759;52.220;5.170;2022-11-18T04:39:10;13.07;;;6.57;;
76059;SDS011;64759;52.220;5.170;2022-11-18T04:41:36;17.63;;;6.68;;
76059;SDS011;64759;52.220;5.170;2022-11-18T04:44:19;13.20;;;6.97;;
76059;SDS011;64759;52.220;5.170;2022-11-18T04:46:52;17.23;;;6.95;;
76059;SDS011;64759;52.220;5.170;2022-11-18T04:49:18;19.20;;;6.72;;
76059;SDS011;64759;52.220;5.170;2022-11-18T04:51:45;17.08;;;7.57;;
76059;SDS011;64759;52.220;5.170;2022-11-18T04:54:11;16.27;;;7.78;;
76059;SDS011;64759;52.220;5.170;2022-11-18T04:56:37;13.27;;;7.30;;
76059;SDS011;64759;52.220;5.170;2022-11-18T04:59:03;18.48;;;6.70;;
76059;SDS011;64759;52.220;5.170;2022-11-18T05:01:29;17.50;;;8.10;;
76059;SDS011;64759;52.220;5.170;2022-11-18T05:03:55;17.17;;;7.68;;
76059;SDS011;64759;52.220;5.170;2022-11-18T05:06:21;12.13;;;7.20;;
76059;SDS011;64759;52.220;5.170;2022-11-18T05:08:47;18.10;;;7.15;;
76059;SDS011;64759;52.220;5.170;2022-11-18T05:11:13;13.40;;;6.70;;
76059;SDS011;64759;52.220;5.170;2022-11-18T05:13:57;13.50;;;6.78;;
76059;SDS011;64759;52.220;5.170;2022-11-18T05:16:22;12.80;;;6.85;;
76059;SDS011;64759;52.220;5.170;2022-11-18T05:18:48;16.88;;;7.35;;
76059;SDS011;64759;52.220;5.170;2022-11-18T05:21:13;12.43;;;6.68;;
76059;SDS011;64759;52.220;5.170;2022-11-18T05:23:38;15.85;;;7.22;;
76059;SDS011;64759;52.220;5.170;2022-11-18T05:26:04;16.40;;;6.82;;
76059;SDS011;64759;52.220;5.170;2022-11-18T05:28:31;18.02;;;6.75;;
76059;SDS011;64759;52.220;5.170;2022-11-18T05:30:56;14.98;;;7.38;;
76059;SDS011;64759;52.220;5.170;2022-11-18T05:33:21;15.27;;;6.85;;
76059;SDS011;64759;52.220;5.170;2022-11-18T05:35:47;18.67;;;6.70;;
76059;SDS011;64759;52.220;5.170;2022-11-18T05:38:12;13.75;;;7.32;;
76059;SDS011;64759;52.220;5.170;2022-11-18T05:40:37;15.20;;;6.78;;
76059;SDS011;64759;52.220;5.170;2022-11-18T05:43:03;16.70;;;7.50;;
76059;SDS011;64759;52.220;5.170;2022-11-18T05:45:38;15.35;;;6.60;;
76059;SDS011;64759;52.220;5.170;2022-11-18T05:48:03;13.10;;;6.57;;
76059;SDS011;64759;52.220;5.170;2022-11-18T05:50:31;18.02;;;6.80;;
76059;SDS011;64759;52.220;5.170;2022-11-18T05:52:58;15.23;;;5.93;;
76059;SDS011;64759;52.220;5.170;2022-11-18T05:55:25;12.07;;;6.43;;
76059;SDS011;64759;52.220;5.170;2022-11-18T05:57:55;8.95;;;5.78;;
76059;SDS011;64759;52.220;5.170;2022-11-18T06:00:20;11.20;;;6.18;;
76059;SDS011;64759;52.220;5.170;2022-11-18T06:02:46;15.15;;;6.47;;
76059;SDS011;64759;52.220;5.170;2022-11-18T06:05:14;13.75;;;6.47;;
76059;SDS011;64759;52.220;5.170;2022-11-18T06:07:43;12.60;;;5.83;;
76059;SDS011;64759;52.220;5.170;2022-11-18T06:10:11;13.23;;;5.97;;
76059;SDS011;64759;52.220;5.170;2022-11-18T06:12:41;17.45;;;6.93;;
76059;SDS011;64759;52.220;5.170;2022-11-18T06:15:10;9.00;;;5.75;;
76059;SDS011;64759;52.220;5.170;2022-11-18T06:17:47;10.90;;;5.68;;
76059;SDS011;64759;52.220;5.170;2022-11-18T06:20:20;16.45;;;5.95;;
76059;SDS011;64759;52.220;5.170;2022-11-18T06:22:50;8.85;;;5.38;;
76059;SDS011;64759;52.220;5.170;2022-11-18T06:25:18;15.98;;;6.25;;
76059;SDS011;64759;52.220;5.170;2022-11-18T06:27:44;8.95;;;5.63;;
76059;SDS011;64759;52.220;5.170;2022-11-18T06:30:11;16.08;;;6.53;;
76059;SDS011;64759;52.220;5.170;2022-11-18T06:32:37;13.80;;;5.72;;
76059;SDS011;64759;52.220;5.170;2022-11-18T06:35:03;10.02;;;5.07;;
76059;SDS011;64759;52.220;5.170;2022-11-18T06:37:28;15.80;;;5.93;;
76059;SDS011;64759;52.220;5.170;2022-11-18T06:39:54;15.40;;;5.78;;
76059;SDS011;64759;52.220;5.170;2022-11-18T06:42:19;15.88;;;6.00;;
76059;SDS011;64759;52.220;5.170;2022-11-18T06:45:03;11.13;;;5.78;;
76059;SDS011;64759;52.220;5.170;2022-11-18T06:47:29;13.65;;;5.30;;
76059;SDS011;64759;52.220;5.170;2022-11-18T06:49:54;11.20;;;5.32;;
76059;SDS011;64759;52.220;5.170;2022-11-18T06:52:21;18.10;;;5.60;;
76059;SDS011;64759;52.220;5.170;2022-11-18T06:54:47;10.90;;;5.88;;
76059;SDS011;64759;52.220;5.170;2022-11-18T06:57:12;20.02;;;6.35;;
76059;SDS011;64759;52.220;5.170;2022-11-18T06:59:37;10.93;;;5.57;;
76059;SDS011;64759;52.220;5.170;2022-11-18T07:02:03;15.32;;;5.68;;
76059;SDS011;64759;52.220;5.170;2022-11-18T07:04:28;18.15;;;6.18;;
76059;SDS011;64759;52.220;5.170;2022-11-18T07:06:53;10.82;;;5.68;;
76059;SDS011;64759;52.220;5.170;2022-11-18T07:09:19;13.32;;;5.53;;
76059;SDS011;64759;52.220;5.170;2022-11-18T07:11:44;15.93;;;5.53;;
76059;SDS011;64759;52.220;5.170;2022-11-18T07:14:09;11.88;;;6.20;;
76059;SDS011;64759;52.220;5.170;2022-11-18T07:16:37;12.40;;;5.07;;
76059;SDS011;64759;52.220;5.170;2022-11-18T07:19:07;14.55;;;5.60;;
76059;SDS011;64759;52.220;5.170;2022-11-18T07:21:34;12.27;;;5.00;;
76059;SDS011;64759;52.220;5.170;2022-11-18T07:23:59;10.50;;;5.63;;
76059;SDS011;64759;52.220;5.170;2022-11-18T07:26:25;11.73;;;5.28;;
76059;SDS011;64759;52.220;5.170;2022-11-18T07:28:50;13.43;;;5.22;;
76059;SDS011;64759;52.220;5.170;2022-11-18T07:31:17;14.30;;;5.20;;
76059;SDS011;64759;52.220;5.170;2022-11-18T07:33:44;12.13;;;5.53;;
76059;SDS011;64759;52.220;5.170;2022-11-18T07:36:12;11.98;;;5.15;;
76059;SDS011;64759;52.220;5.170;2022-11-18T07:38:39;11.70;;;5.00;;
76059;SDS011;64759;52.220;5.170;2022-11-18T07:41:12;10.50;;;4.80;;
76059;SDS011;64759;52.220;5.170;2022-11-18T07:43:41;11.15;;;4.90;;
76059;SDS011;64759;52.220;5.170;2022-11-18T07:46:08;14.23;;;4.93;;
76059;SDS011;64759;52.220;5.170;2022-11-18T07:48:39;12.50;;;5.40;;
76059;SDS011;64759;52.220;5.170;2022-11-18T07:51:05;12.07;;;4.85;;
76059;SDS011;64759;52.220;5.170;2022-11-18T07:53:31;12.60;;;5.32;;
76059;SDS011;64759;52.220;5.170;2022-11-18T07:55:57;9.15;;;5.00;;
76059;SDS011;64759;52.220;5.170;2022-11-18T07:58:23;11.23;;;4.70;;
76059;SDS011;64759;52.220;5.170;2022-11-18T08:00:48;11.45;;;4.60;;
76059;SDS011;64759;52.220;5.170;2022-11-18T08:03:13;11.98;;;4.43;;
76059;SDS011;64759;52.220;5.170;2022-11-18T08:05:39;10.38;;;4.80;;
76059;SDS011;64759;52.220;5.170;2022-11-18T08:08:04;14.52;;;4.88;;
76059;SDS011;64759;52.220;5.170;2022-11-18T08:10:29;12.07;;;4.97;;
76059;SDS011;64759;52.220;5.170;2022-11-18T08:12:55;9.77;;;5.07;;
76059;SDS011;64759;52.220;5.170;2022-11-18T08:15:21;10.82;;;5.18;;
76059;SDS011;64759;52.220;5.170;2022-11-18T08:17:47;12.90;;;4.70;;
76059;SDS011;64759;52.220;5.170;2022-11-18T08:20:13;15.88;;;5.60;;
76059;SDS011;64759;52.220;5.170;2022-11-18T08:22:38;13.73;;;5.97;;
76059;SDS011;64759;52.220;5.170;2022-11-18T08:25:04;14.55;;;5.38;;
76059;SDS011;64759;52.220;5.170;2022-11-18T08:27:30;12.02;;;5.50;;
76059;SDS011;64759;52.220;5.170;2022-11-18T08:29:56;12.63;;;6.20;;
76059;SDS011;64759;52.220;5.170;2022-11-18T08:32:21;19.45;;;5.30;;
76059;SDS011;64759;52.220;5.170;2022-11-18T08:34:47;13.27;;;5.00;;
76059;SDS011;64759;52.220;5.170;2022-11-18T08:37:12;13.25;;;4.72;;
76059;SDS011;64759;52.220;5.170;2022-11-18T08:39:37;13.15;;;5.05;;
76059;SDS011;64759;52.220;5.170;2022-11-18T08:42:03;9.80;;;4.63;;
76059;SDS011;64759;52.220;5.170;2022-11-18T08:44:28;13.80;;;5.45;;
76059;SDS011;64759;52.220;5.170;2022-11-18T08:46:57;10.52;;;4.72;;
76059;SDS011;64759;52.220;5.170;2022-11-18T08:49:22;15.95;;;4.47;;
76059;SDS011;64759;52.220;5.170;2022-11-18T08:51:48;13.10;;;4.97;;
76059;SDS011;64759;52.220;5.170;2022-11-18T08:54:13;12.23;;;4.28;;
76059;SDS011;64759;52.220;5.170;2022-11-18T08:56:39;9.60;;;4.10;;
76059;SDS011;64759;52.220;5.170;2022-11-18T08:59:04;9.90;;;4.05;;
76059;SDS011;64759;52.220;5.170;2022-11-18T09:01:30;9.80;;;4.10;;
76059;SDS011;64759;52.220;5.170;2022-11-18T09:03:55;13.95;;;4.38;;
76059;SDS011;64759;52.220;5.170;2022-11-18T09:06:21;17.50;;;4.65;;
76059;SDS011;64759;52.220;5.170;2022-11-18T09:08:49;12.10;;;4.57;;
76059;SDS011;64759;52.220;5.170;2022-11-18T09:11:15;10.80;;;4.30;;
76059;SDS011;64759;52.220;5.170;2022-11-18T09:13:42;14.32;;;4.53;;
76059;SDS011;64759;52.220;5.170;2022-11-18T09:16:07;13.73;;;5.68;;
76059;SDS011;64759;52.220;5.170;2022-11-18T09:18:33;23.23;;;6.32;;
76059;SDS011;64759;52.220;5.170;2022-11-18T09:21:00;15.23;;;5.88;;
76059;SDS011;64759;52.220;5.170;2022-11-18T09:23:31;12.63;;;6.88;;
76059;SDS011;64759;52.220;5.170;2022-11-18T09:30:54;15.40;;;6.75;;
76059;SDS011;64759;52.220;5.170;2022-11-18T09:33:20;10.70;;;5.28;;
76059;SDS011;64759;52.220;5.170;2022-11-18T09:35:45;15.52;;;5.43;;
76059;SDS011;64759;52.220;5.170;2022-11-18T09:38:11;11.88;;;4.72;;
76059;SDS011;64759;52.220;5.170;2022-11-18T09:40:39;15.75;;;6.15;;
76059;SDS011;64759;52.220;5.170;2022-11-18T09:43:25;13.20;;;5.10;;
76059;SDS011;64759;52.220;5.170;2022-11-18T09:46:02;14.95;;;5.40;;
76059;SDS011;64759;52.220;5.170;2022-11-18T09:48:43;16.15;;;5.63;;
76059;SDS011;64759;52.220;5.170;2022-11-18T09:51:28;10.70;;;5.40;;
76059;SDS011;64759;52.220;5.170;2022-11-18T09:54:02;14.95;;;5.78;;
76059;SDS011;64759;52.220;5.170;2022-11-18T09:56:28;12.23;;;5.32;;
76059;SDS011;64759;52.220;5.170;2022-11-18T09:58:54;12.90;;;5.97;;
76059;SDS011;64759;52.220;5.170;2022-11-18T10:01:20;10.13;;;5.55;;
76059;SDS011;64759;52.220;5.170;2022-11-18T10:03:45;12.07;;;5.03;;
76059;SDS011;64759;52.220;5.170;2022-11-18T10:06:19;13.73;;;4.80;;
76059;SDS011;64759;52.220;5.170;2022-11-18T10:09:03;11.27;;;4.15;;
76059;SDS011;64759;52.220;5.170;2022-11-18T10:11:42;10.35;;;3.72;;
76059;SDS011;64759;52.220;5.170;2022-11-18T10:16:40;15.93;;;4.15;;
76059;SDS011;64759;52.220;5.170;2022-11-18T10:22:03;13.23;;;4.00;;
76059;SDS011;64759;52.220;5.170;2022-11-18T10:24:40;10.57;;;3.75;;
76059;SDS011;64759;52.220;5.170;2022-11-18T10:27:11;10.65;;;3.88;;
76059;SDS011;64759;52.220;5.170;2022-11-18T10:29:37;12.07;;;3.97;;
76059;SDS011;64759;52.220;5.170;2022-11-18T10:32:07;14.25;;;5.10;;
76059;SDS011;64759;52.220;5.170;2022-11-18T10:34:45;11.48;;;4.93;;
76059;SDS011;64759;52.220;5.170;2022-11-18T10:37:26;13.88;;;4.68;;
76059;SDS011;64759;52.220;5.170;2022-11-18T10:39:55;12.23;;;4.35;;
76059;SDS011;64759;52.220;5.170;2022-11-18T10:42:39;12.45;;;4.68;;
76059;SDS011;64759;52.220;5.170;2022-11-18T10:45:27;8.52;;;3.67;;
76059;SDS011;64759;52.220;5.170;2022-11-18T10:50:41;11.70;;;3.72;;
76059;SDS011;64759;52.220;5.170;2022-11-18T10:56:02;9.48;;;3.90;;
76059;SDS011;64759;52.220;5.170;2022-11-18T10:58:39;11.02;;;3.58;;
76059;SDS011;64759;52.220;5.170;2022-11-18T11:01:23;13.85;;;3.40;;
76059;SDS011;64759;52.220;5.170;2022-11-18T11:03:51;7.93;;;3.25;;
76059;SDS011;64759;52.220;5.170;2022-11-18T11:14:54;13.80;;;3.65;;
76059;SDS011;64759;52.220;5.170;2022-11-18T11:17:30;12.57;;;3.75;;
76059;SDS011;64759;52.220;5.170;2022-11-18T11:20:11;12.23;;;3.97;;
76059;SDS011;64759;52.220;5.170;2022-11-18T11:22:43;12.77;;;4.35;;
76059;SDS011;64759;52.220;5.170;2022-11-18T11:25:12;10.18;;;4.38;;
76059;SDS011;64759;52.220;5.170;2022-11-18T11:30:18;11.30;;;4.07;;
76059;SDS011;64759;52.220;5.170;2022-11-18T11:35:32;12.07;;;4.40;;
76059;SDS011;64759;52.220;5.170;2022-11-18T11:43:50;12.80;;;4.28;;
76059;SDS011;64759;52.220;5.170;2022-11-18T11:49:02;14.73;;;4.22;;
76059;SDS011;64759;52.220;5.170;2022-11-18T12:04:56;18.85;;;5.18;;
76059;SDS011;64759;52.220;5.170;2022-11-18T12:07:27;12.82;;;5.20;;
76059;SDS011;64759;52.220;5.170;2022-11-18T12:18:52;13.07;;;6.10;;
76059;SDS011;64759;52.220;5.170;2022-11-18T12:24:28;16.48;;;8.00;;
76059;SDS011;64759;52.220;5.170;2022-11-18T12:29:22;13.77;;;7.57;;
76059;SDS011;64759;52.220;5.170;2022-11-18T12:31:53;17.60;;;8.88;;
76059;SDS011;64759;52.220;5.170;2022-11-18T12:36:50;12.68;;;8.50;;
76059;SDS011;64759;52.220;5.170;2022-11-18T12:41:57;19.30;;;8.85;;
76059;SDS011;64759;52.220;5.170;2022-11-18T12:44:43;14.65;;;8.52;;
76059;SDS011;64759;52.220;5.170;2022-11-18T12:47:10;16.95;;;8.23;;
76059;SDS011;64759;52.220;5.170;2022-11-18T12:52:03;15.05;;;8.85;;
76059;SDS011;64759;52.220;5.170;2022-11-18T12:54:49;16.85;;;8.13;;
76059;SDS011;64759;52.220;5.170;2022-11-18T12:57:18;15.57;;;8.75;;
76059;SDS011;64759;52.220;5.170;2022-11-18T12:59:48;15.18;;;9.10;;
76059;SDS011;64759;52.220;5.170;2022-11-18T13:02:18;19.70;;;10.32;;
76059;SDS011;64759;52.220;5.170;2022-11-18T13:07:44;20.17;;;11.95;;
76059;SDS011;64759;52.220;5.170;2022-11-18T13:10:32;14.02;;;10.57;;
76059;SDS011;64759;52.220;5.170;2022-11-18T13:13:01;17.27;;;10.77;;
76059;SDS011;64759;52.220;5.170;2022-11-18T13:15:27;23.23;;;11.52;;
76059;SDS011;64759;52.220;5.170;2022-11-18T13:18:13;16.02;;;11.32;;
76059;SDS011;64759;52.220;5.170;2022-11-18T13:20:40;24.23;;;12.82;;
76059;SDS011;64759;52.220;5.170;2022-11-18T13:26:10;17.92;;;10.93;;
76059;SDS011;64759;52.220;5.170;2022-11-18T13:33:46;22.25;;;12.13;;
76059;SDS011;64759;52.220;5.170;2022-11-18T13:38:54;21.33;;;12.30;;
76059;SDS011;64759;52.220;5.170;2022-11-18T13:41:20;20.33;;;12.10;;
76059;SDS011;64759;52.220;5.170;2022-11-18T13:43:49;18.90;;;12.02;;
76059;SDS011;64759;52.220;5.170;2022-11-18T13:46:16;17.83;;;11.25;;
76059;SDS011;64759;52.220;5.170;2022-11-18T13:48:48;19.50;;;12.00;;
76059;SDS011;64759;52.220;5.170;2022-11-18T13:51:18;21.10;;;11.80;;
76059;SDS011;64759;52.220;5.170;2022-11-18T13:53:46;27.58;;;12.90;;
76059;SDS011;64759;52.220;5.170;2022-11-18T13:56:24;23.45;;;12.82;;
76059;SDS011;64759;52.220;5.170;2022-11-18T13:58:53;20.38;;;11.60;;
76059;SDS011;64759;52.220;5.170;2022-11-18T14:01:30;17.83;;;11.60;;
76059;SDS011;64759;52.220;5.170;2022-11-18T14:06:36;16.98;;;12.27;;
76059;SDS011;64759;52.220;5.170;2022-11-18T14:12:21;19.35;;;13.02;;
76059;SDS011;64759;52.220;5.170;2022-11-18T14:14:26;20.38;;;12.68;;
76059;SDS011;64759;52.220;5.170;2022-11-18T14:16:54;18.98;;;11.40;;
76059;SDS011;64759;52.220;5.170;2022-11-18T14:19:48;20.58;;;11.63;;
76059;SDS011;64759;52.220;5.170;2022-11-18T14:22:19;22.60;;;12.80;;
76059;SDS011;64759;52.220;5.170;2022-11-18T14:24:54;21.35;;;11.52;;
76059;SDS011;64759;52.220;5.170;2022-11-18T14:27:32;19.98;;;11.73;;
76059;SDS011;64759;52.220;5.170;2022-11-18T14:30:01;18.17;;;11.57;;
76059;SDS011;64759;52.220;5.170;2022-11-18T14:33:01;19.35;;;10.90;;
76059;SDS011;64759;52.220;5.170;2022-11-18T14:38:17;21.35;;;13.38;;
76059;SDS011;64759;52.220;5.170;2022-11-18T14:40:45;24.42;;;12.38;;
76059;SDS011;64759;52.220;5.170;2022-11-18T14:43:11;18.25;;;12.50;;
76059;SDS011;64759;52.220;5.170;2022-11-18T14:45:37;23.20;;;11.80;;
76059;SDS011;64759;52.220;5.170;2022-11-18T14:48:03;18.70;;;10.50;;
76059;SDS011;64759;52.220;5.170;2022-11-18T14:50:29;21.17;;;11.45;;
76059;SDS011;64759;52.220;5.170;2022-11-18T14:52:54;20.85;;;11.10;;
76059;SDS011;64759;52.220;5.170;2022-11-18T14:55:20;18.20;;;10.13;;
76059;SDS011;64759;52.220;5.170;2022-11-18T14:57:45;20.35;;;10.75;;
76059;SDS011;64759;52.220;5.170;2022-11-18T15:00:11;23.65;;;11.07;;
76059;SDS011;64759;52.220;5.170;2022-11-18T15:02:39;20.15;;;10.40;;
76059;SDS011;64759;52.220;5.170;2022-11-18T15:05:05;22.83;;;11.15;;
76059;SDS011;64759;52.220;5.170;2022-11-18T15:07:31;21.40;;;11.00;;
76059;SDS011;64759;52.220;5.170;2022-11-18T15:09:57;18.35;;;10.35;;
76059;SDS011;64759;52.220;5.170;2022-11-18T15:12:23;19.13;;;11.38;;
76059;SDS011;64759;52.220;5.170;2022-11-18T15:14:48;18.92;;;10.65;;
76059;SDS011;64759;52.220;5.170;2022-11-18T15:17:13;17.85;;;10.80;;
76059;SDS011;64759;52.220;5.170;2022-11-18T15:19:39;23.17;;;10.30;;
76059;SDS011;64759;52.220;5.170;2022-11-18T15:22:07;17.48;;;10.55;;
76059;SDS011;64759;52.220;5.170;2022-11-18T15:24:33;22.50;;;10.10;;
76059;SDS011;64759;52.220;5.170;2022-11-18T15:26:58;19.10;;;10.85;;
76059;SDS011;64759;52.220;5.170;2022-11-18T15:29:24;18.08;;;9.75;;
76059;SDS011;64759;52.220;5.170;2022-11-18T15:31:50;21.98;;;10.50;;
76059;SDS011;64759;52.220;5.170;2022-11-18T15:34:16;23.15;;;10.80;;
76059;SDS011;64759;52.220;5.170;2022-11-18T15:36:44;27.88;;;12.68;;
76059;SDS011;64759;52.220;5.170;2022-11-18T15:39:09;23.15;;;12.63;;
76059;SDS011;64759;52.220;5.170;2022-11-18T15:41:35;22.60;;;12.10;;
76059;SDS011;64759;52.220;5.170;2022-11-18T15:44:02;19.98;;;11.27;;
76059;SDS011;64759;52.220;5.170;2022-11-18T15:46:28;19.60;;;10.60;;
76059;SDS011;64759;52.220;5.170;2022-11-18T15:48:55;18.23;;;10.25;;
76059;SDS011;64759;52.220;5.170;2022-11-18T15:51:24;19.20;;;10.25;;
76059;SDS011;64759;52.220;5.170;2022-11-18T15:53:50;18.83;;;10.13;;
76059;SDS011;64759;52.220;5.170;2022-11-18T15:58:51;17.08;;;9.55;;
76059;SDS011;64759;52.220;5.170;2022-11-18T16:01:17;21.65;;;10.38;;
76059;SDS011;64759;52.220;5.170;2022-11-18T16:03:43;21.65;;;10.25;;
76059;SDS011;64759;52.220;5.170;2022-11-18T16:06:08;17.25;;;10.00;;
76059;SDS011;64759;52.220;5.170;2022-11-18T16:08:34;34.88;;;21.88;;
76059;SDS011;64759;52.220;5.170;2022-11-18T16:10:59;22.70;;;11.10;;
76059;SDS011;64759;52.220;5.170;2022-11-18T16:13:43;21.17;;;11.65;;
76059;SDS011;64759;52.220;5.170;2022-11-18T16:16:18;22.05;;;11.52;;
76059;SDS011;64759;52.220;5.170;2022-11-18T16:18:44;20.17;;;11.93;;
76059;SDS011;64759;52.220;5.170;2022-11-18T16:21:10;20.05;;;12.15;;
76059;SDS011;64759;52.220;5.170;2022-11-18T16:23:35;23.55;;;11.60;;
76059;SDS011;64759;52.220;5.170;2022-11-18T16:26:00;20.45;;;11.98;;
76059;SDS011;64759;52.220;5.170;2022-11-18T16:31:07;20.17;;;11.93;;
76059;SDS011;64759;52.220;5.170;2022-11-18T16:33:51;27.80;;;12.35;;
76059;SDS011;64759;52.220;5.170;2022-11-18T16:36:16;15.80;;;11.98;;
76059;SDS011;64759;52.220;5.170;2022-11-18T16:38:42;18.10;;;12.63;;
76059;SDS011;64759;52.220;5.170;2022-11-18T16:41:07;16.17;;;10.77;;
76059;SDS011;64759;52.220;5.170;2022-11-18T16:43:53;18.30;;;11.82;;
76059;SDS011;64759;52.220;5.170;2022-11-18T16:46:18;16.30;;;11.25;;
76059;SDS011;64759;52.220;5.170;2022-11-18T16:48:44;13.30;;;11.00;;
76059;SDS011;64759;52.220;5.170;2022-11-18T16:53:50;19.33;;;11.95;;